Time;durP1;ratioP1;P1;durP2;ratioP2;P2;SDS_P1;SDS_P2;PMS_P1;PMS_P2;Temp;Humidity;BMP_temperature;BMP_pressure;BME280_temperature;BME280_humidity;BME280_pressure;Samples;Min_cycle;Max_cycle;Signal;HPM_P1;HPM_P2
2023/06/03 00:00:23;;;;;;;1.73;1.05;;;13.60;93.20;;;;;;5074218;28;20044;-66
2023/06/03 00:02:52;;;;;;;2.20;1.20;;;13.60;93.20;;;;;;5074473;28;20559;-66
2023/06/03 00:05:20;;;;;;;1.50;0.95;;;13.50;92.90;;;;;;5073868;28;20073;-66
2023/06/03 00:07:45;;;;;;;2.67;1.15;;;13.50;92.70;;;;;;5073398;28;20051;-66
2023/06/03 00:10:11;;;;;;;2.00;1.17;;;13.50;92.80;;;;;;5073295;28;20119;-66
2023/06/03 00:12:37;;;;;;;3.58;1.00;;;13.40;92.30;;;;;;5074518;28;20050;-66
2023/06/03 00:15:02;;;;;;;3.22;1.00;;;13.40;92.40;;;;;;5073979;28;20025;-65
2023/06/03 00:17:28;;;;;;;1.08;0.80;;;13.30;91.80;;;;;;5074369;28;20521;-65
2023/06/03 00:19:54;;;;;;;1.38;1.00;;;13.30;91.80;;;;;;5073220;28;20044;-66
2023/06/03 00:22:23;;;;;;;2.00;1.20;;;13.30;91.50;;;;;;5074128;28;20494;-66
2023/06/03 00:24:49;;;;;;;2.90;1.05;;;13.30;91.30;;;;;;5073717;28;20041;-65
2023/06/03 00:27:15;;;;;;;3.03;1.02;;;13.20;91.10;;;;;;5073988;28;20040;-65
2023/06/03 00:29:41;;;;;;;4.25;1.20;;;13.20;91.00;;;;;;5074224;28;20033;-66
2023/06/03 00:32:06;;;;;;;3.17;1.00;;;13.20;90.70;;;;;;5072775;28;20040;-65
2023/06/03 00:34:32;;;;;;;1.70;0.90;;;13.10;90.40;;;;;;5073557;28;20059;-66
2023/06/03 00:36:57;;;;;;;3.22;1.13;;;13.10;90.30;;;;;;5073836;28;20093;-65
2023/06/03 00:39:23;;;;;;;2.72;1.30;;;13.10;90.10;;;;;;5073743;28;20036;-65
2023/06/03 00:41:49;;;;;;;2.30;0.95;;;13.10;90.10;;;;;;5073813;28;20397;-66
2023/06/03 00:44:14;;;;;;;2.35;0.73;;;13.10;89.80;;;;;;5073362;28;20041;-65
2023/06/03 00:46:41;;;;;;;2.13;1.08;;;13.10;89.70;;;;;;5073447;28;20084;-65
2023/06/03 00:49:07;;;;;;;2.00;1.10;;;13.00;89.70;;;;;;5073298;28;20044;-65
2023/06/03 00:51:35;;;;;;;3.40;1.00;;;13.00;89.50;;;;;;5072043;28;20048;-65
2023/06/03 00:54:01;;;;;;;1.98;1.10;;;13.00;89.20;;;;;;5073564;28;20036;-66
2023/06/03 00:56:27;;;;;;;3.90;0.90;;;13.00;89.10;;;;;;5071885;28;20160;-65
2023/06/03 00:58:53;;;;;;;4.55;1.25;;;12.90;89.20;;;;;;5073246;28;20036;-66
2023/06/03 01:01:19;;;;;;;3.50;1.30;;;12.90;89.10;;;;;;5073129;28;20064;-66
2023/06/03 01:03:47;;;;;;;2.53;1.00;;;12.90;89.20;;;;;;5073056;28;20045;-65
2023/06/03 01:06:15;;;;;;;5.72;1.15;;;12.80;89.20;;;;;;5071554;28;20493;-66
2023/06/03 01:09:17;;;;;;;1.65;0.85;;;12.80;89.00;;;;;;5073215;28;20102;-66
2023/06/03 01:11:55;;;;;;;2.50;1.10;;;12.80;88.20;;;;;;5050883;28;20040;-65
2023/06/03 01:14:33;;;;;;;2.80;1.13;;;12.70;88.50;;;;;;5069823;28;20053;-66
2023/06/03 01:17:09;;;;;;;2.33;0.95;;;12.60;88.30;;;;;;5073093;28;20040;-66
2023/06/03 01:19:48;;;;;;;2.83;0.82;;;12.60;88.40;;;;;;5073387;28;20040;-65
2023/06/03 01:22:18;;;;;;;1.65;1.00;;;12.50;88.20;;;;;;5072568;28;20040;-66
2023/06/03 01:24:45;;;;;;;2.63;1.00;;;12.50;88.30;;;;;;5072877;28;20541;-65
2023/06/03 01:27:12;;;;;;;2.08;1.10;;;12.50;88.50;;;;;;5072719;28;20048;-65
2023/06/03 01:29:42;;;;;;;2.67;1.00;;;12.50;88.50;;;;;;5073169;28;20465;-65
2023/06/03 01:32:11;;;;;;;3.55;0.98;;;12.40;88.30;;;;;;5072238;28;20043;-65
2023/06/03 01:34:37;;;;;;;1.98;1.10;;;12.40;88.20;;;;;;5072296;28;20107;-66
2023/06/03 01:37:03;;;;;;;3.67;1.17;;;12.40;88.30;;;;;;5071463;28;20051;-66
2023/06/03 01:39:30;;;;;;;1.40;0.82;;;12.40;88.30;;;;;;5071130;28;20051;-65
2023/06/03 01:41:56;;;;;;;3.55;1.23;;;12.30;88.20;;;;;;5072802;28;20093;-66
2023/06/03 01:44:21;;;;;;;2.10;1.30;;;12.30;88.40;;;;;;5072055;28;20040;-66
2023/06/03 01:46:47;;;;;;;1.23;0.90;;;12.30;88.60;;;;;;5054138;28;20044;-66
2023/06/03 01:49:14;;;;;;;2.05;1.08;;;12.20;88.60;;;;;;5072337;28;20036;-66
2023/06/03 01:51:39;;;;;;;2.30;1.10;;;12.20;89.50;;;;;;5072708;28;20182;-66
2023/06/03 01:54:05;;;;;;;4.82;1.10;;;12.20;88.90;;;;;;5072176;28;20123;-65
2023/06/03 01:56:31;;;;;;;0.98;0.80;;;12.10;89.10;;;;;;5070915;28;20123;-65
2023/06/03 01:58:56;;;;;;;2.65;1.17;;;12.10;89.40;;;;;;5072176;28;20501;-65
2023/06/03 02:01:22;;;;;;;1.90;0.90;;;12.10;89.60;;;;;;5066648;28;20509;-65
2023/06/03 02:03:48;;;;;;;3.22;1.00;;;12.00;89.90;;;;;;5071529;28;20110;-65
2023/06/03 02:06:14;;;;;;;1.75;1.15;;;12.00;90.00;;;;;;5071591;28;20067;-65
2023/06/03 02:08:39;;;;;;;1.35;1.02;;;11.90;90.10;;;;;;5070296;28;20087;-65
2023/06/03 02:11:05;;;;;;;1.88;1.27;;;11.90;90.20;;;;;;5072372;28;20058;-65
2023/06/03 02:13:30;;;;;;;1.95;1.05;;;11.90;90.40;;;;;;5069853;28;20047;-65
2023/06/03 02:15:56;;;;;;;2.65;1.10;;;11.90;90.50;;;;;;5071918;28;20039;-65
2023/06/03 02:18:21;;;;;;;2.33;0.90;;;11.90;90.70;;;;;;5072104;28;20079;-65
2023/06/03 02:20:47;;;;;;;3.97;1.00;;;11.80;91.00;;;;;;5071566;28;20048;-66
2023/06/03 02:23:13;;;;;;;1.70;1.20;;;11.90;91.00;;;;;;5071668;28;20052;-65
2023/06/03 02:25:40;;;;;;;3.58;1.15;;;11.80;91.10;;;;;;5072048;28;20040;-65
2023/06/03 02:28:07;;;;;;;1.65;0.98;;;11.80;91.20;;;;;;5072003;28;20051;-65
2023/06/03 02:30:33;;;;;;;1.70;1.10;;;11.70;91.30;;;;;;5071852;28;20044;-65
2023/06/03 02:32:59;;;;;;;2.53;1.00;;;11.70;91.40;;;;;;5071552;28;20111;-65
2023/06/03 02:35:24;;;;;;;2.72;1.00;;;11.60;91.60;;;;;;5073865;22;20391;-65
2023/06/03 02:37:50;;;;;;;2.70;1.30;;;11.60;92.00;;;;;;5031129;28;20041;-65
2023/06/03 02:40:16;;;;;;;2.47;1.00;;;11.40;92.40;;;;;;5030695;28;20045;-65
2023/06/03 02:42:42;;;;;;;4.65;1.10;;;11.30;92.80;;;;;;5031890;28;20534;-65
2023/06/03 02:45:08;;;;;;;2.13;1.00;;;11.30;93.20;;;;;;5030557;28;20075;-65
2023/06/03 02:47:34;;;;;;;3.50;1.10;;;11.20;93.50;;;;;;5031686;28;20476;-65
2023/06/03 02:50:00;;;;;;;1.90;1.20;;;11.20;93.80;;;;;;5031757;28;20120;-65
2023/06/03 02:52:25;;;;;;;2.05;1.10;;;11.10;94.10;;;;;;5030556;28;20037;-65
2023/06/03 02:54:51;;;;;;;3.55;1.13;;;11.10;94.40;;;;;;5031139;28;20041;-65
2023/06/03 02:57:17;;;;;;;4.70;1.20;;;11.10;94.80;;;;;;5031846;28;20045;-66
2023/06/03 02:59:43;;;;;;;3.22;1.27;;;11.00;95.30;;;;;;5031292;28;20088;-65
2023/06/03 03:02:08;;;;;;;2.63;1.10;;;11.00;95.60;;;;;;5031589;28;20457;-66
2023/06/03 03:04:36;;;;;;;3.42;0.98;;;11.00;95.90;;;;;;5031096;28;20453;-66
2023/06/03 03:07:08;;;;;;;1.85;1.15;;;11.00;96.10;;;;;;5031783;28;20100;-66
2023/06/03 03:09:34;;;;;;;3.78;1.10;;;10.90;96.20;;;;;;5031724;28;20141;-65
2023/06/03 03:12:00;;;;;;;2.85;1.23;;;10.90;96.20;;;;;;5031689;28;20087;-65
2023/06/03 03:14:26;;;;;;;1.85;1.02;;;11.00;96.30;;;;;;5031126;28;20117;-65
2023/06/03 03:16:52;;;;;;;3.40;1.00;;;11.00;96.20;;;;;;5031807;28;20072;-66
2023/06/03 03:19:18;;;;;;;1.33;1.10;;;11.00;96.20;;;;;;5033825;28;20033;-65
2023/06/03 03:21:44;;;;;;;1.83;1.02;;;11.00;96.30;;;;;;5035625;28;20049;-66
2023/06/03 03:24:10;;;;;;;3.08;1.27;;;11.10;96.30;;;;;;5035247;28;20442;-65
2023/06/03 03:26:36;;;;;;;1.75;0.90;;;11.10;96.30;;;;;;5035323;28;20122;-66
2023/06/03 03:29:02;;;;;;;2.13;1.00;;;11.10;96.40;;;;;;5034562;28;20071;-66
2023/06/03 03:31:29;;;;;;;1.58;0.90;;;11.10;96.40;;;;;;5035544;28;20038;-65
2023/06/03 03:33:55;;;;;;;2.38;1.08;;;11.10;96.40;;;;;;5034863;28;20554;-65
2023/06/03 03:36:23;;;;;;;1.90;0.90;;;11.10;96.60;;;;;;5034611;28;20125;-65
2023/06/03 03:38:59;;;;;;;3.15;1.15;;;11.10;96.70;;;;;;5034841;28;20714;-65
2023/06/03 03:41:25;;;;;;;3.17;1.10;;;11.10;96.80;;;;;;5035116;28;20116;-65
2023/06/03 03:43:51;;;;;;;2.70;1.45;;;11.10;97.10;;;;;;5034063;28;20038;-65
2023/06/03 03:46:17;;;;;;;2.85;1.05;;;11.10;97.20;;;;;;5035195;28;20065;-65
2023/06/03 03:48:44;;;;;;;2.90;1.35;;;11.10;97.40;;;;;;5035003;28;20045;-65
2023/06/03 03:51:12;;;;;;;3.38;1.38;;;11.00;97.60;;;;;;5035046;28;20041;-65
2023/06/03 03:53:41;;;;;;;8.07;1.40;;;11.00;97.70;;;;;;5033948;28;20041;-65
2023/06/03 03:56:07;;;;;;;3.30;1.20;;;11.00;98.00;;;;;;5034637;28;20059;-65
2023/06/03 03:58:41;;;;;;;3.08;1.20;;;10.90;98.20;;;;;;5034803;28;20075;-65
2023/06/03 04:01:18;;;;;;;3.92;1.30;;;10.90;98.40;;;;;;5032230;28;20045;-65
2023/06/03 04:03:50;;;;;;;3.60;1.50;;;10.90;98.70;;;;;;5029903;28;20438;-65
2023/06/03 04:06:32;;;;;;;2.53;1.50;;;10.90;98.80;;;;;;5025548;28;20037;-65
2023/06/03 04:08:58;;;;;;;2.10;1.00;;;10.80;99.00;;;;;;5033020;28;20049;-65
2023/06/03 04:11:28;;;;;;;1.92;1.38;;;10.80;99.30;;;;;;5034605;28;20058;-65
2023/06/03 04:13:55;;;;;;;2.53;1.20;;;10.90;99.60;;;;;;5034227;28;20030;-65
2023/06/03 04:16:41;;;;;;;4.07;1.48;;;10.90;99.70;;;;;;5034417;28;20033;-65
2023/06/03 04:19:14;;;;;;;3.38;1.23;;;10.90;99.80;;;;;;5034357;28;20042;-65
2023/06/03 04:21:39;;;;;;;3.53;1.30;;;11.00;99.90;;;;;;5034647;28;20034;-65
2023/06/03 04:24:05;;;;;;;2.00;1.15;;;11.00;99.90;;;;;;5032837;28;20038;-65
2023/06/03 04:26:31;;;;;;;4.75;1.42;;;11.10;99.90;;;;;;5034205;28;20042;-65
2023/06/03 04:28:56;;;;;;;2.53;1.25;;;11.10;99.90;;;;;;5034218;28;20076;-65
2023/06/03 04:31:22;;;;;;;1.92;1.20;;;11.20;99.90;;;;;;5033182;28;20495;-65
2023/06/03 04:33:49;;;;;;;3.03;1.23;;;11.20;99.90;;;;;;5033866;28;20041;-65
2023/06/03 04:36:14;;;;;;;3.22;1.35;;;11.20;99.90;;;;;;5033939;28;20131;-65
2023/06/03 04:38:41;;;;;;;3.97;1.55;;;11.20;99.90;;;;;;5034172;28;20065;-65
2023/06/03 04:41:10;;;;;;;4.45;1.30;;;11.10;99.90;;;;;;5034093;28;20045;-65
2023/06/03 04:43:38;;;;;;;2.13;1.25;;;11.20;99.90;;;;;;5033896;28;20038;-65
2023/06/03 04:46:06;;;;;;;2.35;1.35;;;11.20;99.90;;;;;;5033703;28;20084;-65
2023/06/03 04:48:33;;;;;;;3.78;1.25;;;11.30;99.90;;;;;;5034075;28;20088;-65
2023/06/03 04:51:01;;;;;;;4.70;1.48;;;11.30;99.90;;;;;;5033491;28;20037;-65
2023/06/03 04:53:27;;;;;;;3.13;1.40;;;11.40;99.90;;;;;;5033766;28;20037;-65
2023/06/03 04:55:52;;;;;;;2.88;1.30;;;11.40;99.90;;;;;;5033462;28;20048;-65
2023/06/03 04:58:18;;;;;;;4.55;1.70;;;11.50;99.90;;;;;;5033280;28;20490;-65
2023/06/03 05:00:45;;;;;;;2.42;1.20;;;11.60;99.90;;;;;;5033198;28;20076;-65
2023/06/03 05:03:11;;;;;;;2.80;1.45;;;11.60;99.90;;;;;;5033478;28;20038;-65
2023/06/03 05:05:43;;;;;;;3.53;1.60;;;11.70;99.90;;;;;;5033419;28;20041;-65
2023/06/03 05:08:10;;;;;;;4.28;1.60;;;11.80;99.90;;;;;;5033614;28;20048;-65
2023/06/03 05:10:36;;;;;;;1.90;1.45;;;12.00;99.90;;;;;;5033537;28;20112;-65
2023/06/03 05:13:03;;;;;;;3.95;1.60;;;12.10;99.90;;;;;;5033326;28;20045;-65
2023/06/03 05:15:28;;;;;;;2.80;1.40;;;12.20;99.70;;;;;;5032988;28;20065;-65
2023/06/03 05:17:54;;;;;;;2.60;1.52;;;12.30;99.50;;;;;;5033567;28;20076;-65
2023/06/03 05:20:20;;;;;;;3.92;1.40;;;12.40;99.30;;;;;;5033355;28;20403;-65
2023/06/03 05:22:45;;;;;;;2.00;1.33;;;12.50;99.00;;;;;;5031578;28;20037;-65
2023/06/03 05:25:12;;;;;;;3.47;1.45;;;12.50;98.90;;;;;;5032566;28;20045;-65
2023/06/03 05:27:37;;;;;;;3.22;1.67;;;12.70;98.90;;;;;;5032943;28;20056;-65
2023/06/03 05:30:03;;;;;;;4.72;1.40;;;12.80;98.40;;;;;;5033259;28;20029;-65
2023/06/03 05:32:29;;;;;;;3.85;1.70;;;12.90;98.30;;;;;;5032667;28;20034;-65
2023/06/03 05:34:54;;;;;;;2.08;1.50;;;13.00;98.40;;;;;;5032329;28;20109;-65
2023/06/03 05:37:21;;;;;;;5.50;1.80;;;13.20;98.10;;;;;;5033072;28;20494;-65
2023/06/03 05:39:46;;;;;;;4.07;1.35;;;13.50;97.80;;;;;;5032917;28;20041;-65
2023/06/03 05:42:12;;;;;;;5.45;1.35;;;13.60;96.90;;;;;;5032714;28;20040;-65
2023/06/03 05:44:37;;;;;;;2.40;1.63;;;13.70;96.50;;;;;;5032692;28;20096;-65
2023/06/03 05:47:03;;;;;;;2.88;1.30;;;13.80;96.60;;;;;;5032699;28;20037;-65
2023/06/03 05:49:29;;;;;;;2.05;1.42;;;13.80;96.80;;;;;;5032852;28;20044;-65
2023/06/03 05:51:54;;;;;;;3.70;1.70;;;13.80;96.70;;;;;;5032883;28;20445;-65
2023/06/03 05:54:20;;;;;;;3.35;1.33;;;13.80;96.80;;;;;;5032445;28;20041;-65
2023/06/03 05:56:45;;;;;;;4.30;1.50;;;13.80;96.80;;;;;;5031231;28;20042;-65
2023/06/03 05:59:11;;;;;;;1.90;1.30;;;13.90;96.70;;;;;;5032715;28;20041;-65
2023/06/03 06:01:37;;;;;;;4.53;1.35;;;13.90;96.60;;;;;;5032679;28;20042;-65
2023/06/03 06:04:02;;;;;;;5.07;1.42;;;14.00;96.80;;;;;;5032339;28;20041;-65
2023/06/03 06:06:28;;;;;;;2.28;1.33;;;14.00;96.60;;;;;;5032433;28;20038;-65
2023/06/03 06:08:53;;;;;;;4.40;1.13;;;14.10;96.30;;;;;;5032280;28;20048;-65
2023/06/03 06:11:19;;;;;;;3.03;1.20;;;14.20;95.90;;;;;;5032266;28;20046;-65
2023/06/03 06:13:44;;;;;;;2.13;1.20;;;14.30;95.80;;;;;;5031806;28;20407;-65
2023/06/03 06:16:10;;;;;;;1.83;1.30;;;14.40;95.90;;;;;;5031981;28;20099;-65
2023/06/03 06:18:36;;;;;;;2.28;1.00;;;14.50;95.40;;;;;;5032414;28;20459;-65
2023/06/03 06:21:01;;;;;;;3.63;1.30;;;14.70;94.90;;;;;;5032240;28;20100;-65
2023/06/03 06:23:27;;;;;;;2.85;1.00;;;14.70;94.40;;;;;;5031602;28;20037;-65
2023/06/03 06:25:54;;;;;;;2.10;1.00;;;14.90;94.10;;;;;;5031569;28;20487;-65
2023/06/03 06:28:26;;;;;;;3.38;1.35;;;15.00;92.70;;;;;;5032256;28;20042;-65
2023/06/03 06:30:59;;;;;;;3.22;1.10;;;15.10;92.00;;;;;;5032021;28;20541;-65
2023/06/03 06:33:27;;;;;;;4.80;1.20;;;15.20;91.80;;;;;;5031914;28;20045;-65
2023/06/03 06:35:52;;;;;;;1.70;1.00;;;15.40;91.30;;;;;;5031757;28;20491;-65
2023/06/03 06:38:18;;;;;;;5.13;1.15;;;15.60;90.60;;;;;;5031888;28;20038;-65
2023/06/03 06:40:45;;;;;;;2.47;0.77;;;15.70;90.80;;;;;;5031750;28;20494;-65
2023/06/03 06:43:14;;;;;;;3.08;1.00;;;15.90;90.20;;;;;;5032007;28;20045;-65
2023/06/03 06:45:40;;;;;;;2.00;0.93;;;16.10;87.70;;;;;;5031807;28;20517;-65
2023/06/03 06:48:08;;;;;;;2.75;1.00;;;16.20;87.40;;;;;;5031506;28;20041;-65
2023/06/03 06:50:48;;;;;;;2.75;1.00;;;16.20;85.50;;;;;;5031634;28;20044;-65
2023/06/03 06:53:16;;;;;;;1.90;0.70;;;16.30;83.10;;;;;;5032298;28;20120;-65
2023/06/03 06:55:59;;;;;;;3.17;0.98;;;16.40;82.60;;;;;;5038050;28;20041;-65
2023/06/03 06:58:33;;;;;;;3.33;1.35;;;16.60;82.90;;;;;;5038436;28;20108;-65
2023/06/03 07:01:00;;;;;;;2.22;0.80;;;16.80;82.10;;;;;;5038084;28;20048;-65
2023/06/03 07:03:26;;;;;;;1.02;0.88;;;16.90;80.40;;;;;;5037679;28;20144;-65
2023/06/03 07:05:53;;;;;;;1.75;0.90;;;17.00;78.50;;;;;;5038167;28;20112;-65
2023/06/03 07:08:22;;;;;;;2.80;0.90;;;17.10;76.60;;;;;;5038191;28;20530;-65
2023/06/03 07:10:47;;;;;;;1.63;0.90;;;17.20;75.90;;;;;;5038424;28;20406;-65
2023/06/03 07:13:15;;;;;;;2.22;1.10;;;17.30;74.60;;;;;;5037748;28;20112;-65
2023/06/03 07:15:41;;;;;;;2.13;1.10;;;17.30;74.80;;;;;;5038030;28;20041;-65
2023/06/03 07:18:12;;;;;;;1.90;0.90;;;17.40;74.60;;;;;;5037772;28;20038;-65
2023/06/03 07:20:42;;;;;;;;;;;17.60;74.30;;;;;;5038873;28;20052;-65
2023/06/03 07:23:12;;;;;;;0.80;0.60;;;17.70;72.40;;;;;;5037883;28;20004;-65
2023/06/03 07:25:42;;;;;;;2.63;0.85;;;17.80;73.10;;;;;;5037760;28;20049;-65
2023/06/03 07:28:10;;;;;;;2.42;0.90;;;18.00;70.90;;;;;;5038187;28;20121;-65
2023/06/03 07:30:36;;;;;;;7.75;1.23;;;18.10;69.90;;;;;;5037162;28;20484;-65
2023/06/03 07:33:04;;;;;;;3.70;0.88;;;18.20;68.60;;;;;;5038303;28;20037;-65
2023/06/03 07:35:30;;;;;;;2.10;0.70;;;18.30;67.50;;;;;;5037743;28;20037;-65
2023/06/03 07:37:56;;;;;;;1.75;0.90;;;18.50;67.30;;;;;;5037946;28;20498;-65
2023/06/03 07:40:39;;;;;;;1.38;0.88;;;18.40;66.10;;;;;;5037986;28;20507;-65
2023/06/03 07:43:04;;;;;;;2.35;1.15;;;18.30;65.30;;;;;;5037811;28;20095;-65
2023/06/03 07:45:30;;;;;;;2.80;0.95;;;18.20;66.10;;;;;;5037867;28;20453;-65
2023/06/03 07:47:56;;;;;;;1.27;0.80;;;18.10;65.30;;;;;;5038126;28;20137;-65
2023/06/03 07:50:24;;;;;;;3.47;0.73;;;18.00;65.00;;;;;;5038042;28;20044;-65
2023/06/03 07:53:00;;;;;;;2.40;0.90;;;17.90;64.70;;;;;;5038009;28;20044;-65
2023/06/03 07:55:26;;;;;;;3.50;0.80;;;17.80;64.00;;;;;;5036947;28;20045;-65
2023/06/03 07:57:52;;;;;;;4.90;0.82;;;18.00;64.40;;;;;;5038006;28;20047;-65
2023/06/03 08:00:18;;;;;;;1.55;0.80;;;18.20;63.60;;;;;;5037954;28;20410;-65
2023/06/03 08:02:44;;;;;;;2.95;0.85;;;18.50;62.80;;;;;;5036994;28;20499;-65
2023/06/03 08:05:10;;;;;;;8.65;1.33;;;18.60;62.60;;;;;;5034843;28;20041;-65
2023/06/03 08:07:36;;;;;;;9.95;1.33;;;18.80;62.20;;;;;;5034455;28;20483;-65
2023/06/03 08:10:03;;;;;;;9.50;1.80;;;19.00;61.00;;;;;;5034553;28;20037;-65
2023/06/03 08:12:33;;;;;;;8.52;1.42;;;19.20;60.60;;;;;;5034053;28;20518;-65
2023/06/03 08:15:00;;;;;;;3.05;0.85;;;19.30;60.00;;;;;;5034317;28;20083;-65
2023/06/03 08:17:39;;;;;;;4.55;1.30;;;19.50;60.10;;;;;;5034202;28;20068;-65
2023/06/03 08:20:09;;;;;;;8.30;1.00;;;19.50;58.40;;;;;;5034097;28;20048;-65
2023/06/03 08:22:43;;;;;;;2.28;0.80;;;19.50;57.50;;;;;;5032793;28;20407;-65
2023/06/03 08:25:09;;;;;;;1.83;0.73;;;19.50;58.00;;;;;;5034303;28;20115;-65
2023/06/03 08:27:36;;;;;;;1.98;0.95;;;19.40;56.30;;;;;;5033956;28;20038;-65
2023/06/03 08:30:03;;;;;;;1.58;0.73;;;19.30;54.70;;;;;;5034358;28;20041;-65
2023/06/03 08:32:32;;;;;;;1.00;0.60;;;19.40;55.70;;;;;;5034011;28;20041;-65
2023/06/03 08:37:30;;;;;;;2.72;0.80;;;19.60;54.30;;;;;;5089610;28;20417;-63
2023/06/03 08:39:56;;;;;;;1.48;0.93;;;19.50;54.40;;;;;;5101517;28;20133;-64
2023/06/03 08:42:28;;;;;;;2.17;0.65;;;19.50;55.10;;;;;;5073555;28;20048;-63
2023/06/03 08:44:53;;;;;;;3.28;0.70;;;19.30;54.50;;;;;;5073865;28;20098;-64
2023/06/03 08:47:34;;;;;;;0.90;0.60;;;19.10;53.40;;;;;;5073751;28;20044;-63
2023/06/03 08:50:05;;;;;;;2.25;0.90;;;18.90;53.10;;;;;;5074169;28;20036;-63
2023/06/03 08:52:35;;;;;;;0.85;0.50;;;18.90;54.80;;;;;;5073754;28;20037;-63
2023/06/03 08:55:02;;;;;;;3.17;0.67;;;18.80;54.80;;;;;;5073871;28;20033;-64
2023/06/03 08:57:40;;;;;;;2.75;0.65;;;18.90;54.30;;;;;;5073705;28;20087;-63
2023/06/03 09:00:07;;;;;;;4.55;0.77;;;18.90;53.70;;;;;;5073098;28;20494;-65
2023/06/03 09:02:34;;;;;;;2.13;0.73;;;18.80;53.30;;;;;;5073193;28;20048;-65
2023/06/03 09:05:01;;;;;;;0.98;0.68;;;18.40;53.00;;;;;;5072226;28;20048;-64
2023/06/03 09:07:29;;;;;;;1.75;0.90;;;18.20;53.90;;;;;;5073517;28;20089;-65
2023/06/03 09:09:56;;;;;;;1.27;0.80;;;18.00;53.70;;;;;;5073029;28;20041;-64
2023/06/03 09:12:25;;;;;;;2.05;0.70;;;17.90;54.00;;;;;;5072986;28;20071;-64
2023/06/03 09:14:54;;;;;;;2.70;0.80;;;17.90;53.90;;;;;;5080195;28;20054;-64
2023/06/03 09:17:20;;;;;;;3.60;0.80;;;17.90;54.10;;;;;;5092865;28;20044;-65
2023/06/03 09:19:46;;;;;;;7.55;1.30;;;18.00;54.30;;;;;;5093621;28;20043;-65
2023/06/03 09:22:13;;;;;;;2.38;0.73;;;17.90;53.50;;;;;;5092919;28;20050;-65
2023/06/03 09:24:39;;;;;;;2.55;0.70;;;17.90;53.60;;;;;;5093223;28;20032;-65
2023/06/03 09:27:05;;;;;;;4.55;0.85;;;18.00;53.70;;;;;;5092383;28;20127;-65
2023/06/03 09:29:31;;;;;;;0.93;0.70;;;18.30;54.40;;;;;;5093295;28;20040;-65
2023/06/03 09:31:57;;;;;;;3.15;0.90;;;18.60;53.30;;;;;;5093310;28;20085;-65
2023/06/03 09:34:22;;;;;;;1.23;0.60;;;19.00;53.30;;;;;;5092985;28;20524;-65
2023/06/03 09:36:49;;;;;;;1.10;0.70;;;19.40;53.00;;;;;;5093014;28;20067;-65
2023/06/03 09:39:17;;;;;;;1.05;0.80;;;19.70;51.90;;;;;;5093155;28;20055;-65
2023/06/03 09:41:44;;;;;;;2.42;0.77;;;20.00;51.50;;;;;;5092880;28;20047;-65
2023/06/03 09:44:11;;;;;;;1.10;1.00;;;20.10;51.70;;;;;;5092894;28;20478;-66
2023/06/03 09:46:37;;;;;;;2.05;0.80;;;20.40;50.70;;;;;;5093078;28;20097;-65
2023/06/03 09:49:14;;;;;;;4.47;0.77;;;20.50;51.80;;;;;;5093038;28;20444;-65
2023/06/03 09:51:47;;;;;;;1.35;0.73;;;20.50;50.20;;;;;;5092956;28;20046;-65
2023/06/03 09:54:14;;;;;;;2.55;0.70;;;20.30;49.80;;;;;;5092370;28;20118;-65
2023/06/03 09:56:40;;;;;;;1.27;0.75;;;20.10;49.70;;;;;;5091722;28;20482;-65
2023/06/03 09:59:21;;;;;;;4.28;0.80;;;20.20;50.40;;;;;;5092873;28;20036;-65
2023/06/03 10:01:48;;;;;;;0.93;0.63;;;20.20;49.90;;;;;;5091417;28;20537;-65
2023/06/03 10:04:22;;;;;;;2.95;0.90;;;20.30;49.50;;;;;;5091089;28;20066;-65
2023/06/03 10:07:05;;;;;;;1.67;0.90;;;20.30;49.20;;;;;;5092351;28;20520;-65
2023/06/03 10:09:30;;;;;;;1.13;0.65;;;20.30;48.70;;;;;;5092764;28;20040;-65
2023/06/03 10:11:56;;;;;;;2.28;0.80;;;20.40;49.80;;;;;;5092533;28;20039;-65
2023/06/03 10:14:25;;;;;;;1.40;0.70;;;20.50;49.10;;;;;;5090959;28;20032;-65
2023/06/03 10:17:07;;;;;;;2.25;0.82;;;20.70;48.60;;;;;;5092285;28;20040;-65
2023/06/03 10:19:35;;;;;;;2.95;0.80;;;20.80;48.70;;;;;;5091409;28;20044;-66
2023/06/03 10:22:02;;;;;;;3.85;0.80;;;20.80;47.50;;;;;;5092342;28;20501;-66
2023/06/03 10:24:30;;;;;;;3.55;0.90;;;20.80;48.00;;;;;;5092164;28;20032;-65
2023/06/03 10:26:55;;;;;;;2.65;0.60;;;20.90;47.40;;;;;;5092176;28;20047;-65
2023/06/03 10:29:22;;;;;;;1.90;0.85;;;20.90;47.40;;;;;;5091653;28;20040;-65
2023/06/03 10:31:53;;;;;;;2.33;0.60;;;20.90;46.80;;;;;;5091985;28;20028;-65
2023/06/03 10:34:19;;;;;;;3.33;0.90;;;21.00;47.80;;;;;;5090871;28;20028;-65
2023/06/03 10:36:52;;;;;;;2.80;0.80;;;21.10;47.20;;;;;;5092100;28;20036;-66
2023/06/03 10:39:18;;;;;;;3.63;0.95;;;21.20;48.00;;;;;;5092261;28;20054;-65
2023/06/03 10:41:45;;;;;;;2.00;0.75;;;21.40;48.60;;;;;;5092147;28;20126;-65
2023/06/03 10:44:11;;;;;;;1.75;0.77;;;21.30;47.60;;;;;;5091598;28;20039;-65
2023/06/03 10:46:46;;;;;;;1.90;0.77;;;21.30;47.00;;;;;;5092226;28;20044;-66
2023/06/03 10:49:13;;;;;;;6.18;1.20;;;21.30;46.30;;;;;;5092110;28;20127;-65
2023/06/03 10:51:48;;;;;;;13.95;1.60;;;21.50;47.10;;;;;;5090768;28;20061;-65
2023/06/03 10:54:38;;;;;;;2.33;0.73;;;21.50;46.40;;;;;;5090628;28;20048;-65
2023/06/03 10:57:08;;;;;;;1.85;0.70;;;21.50;44.00;;;;;;5092013;28;20044;-65
2023/06/03 10:59:42;;;;;;;26.95;2.63;;;21.60;45.80;;;;;;5090762;28;20115;-65
2023/06/03 11:02:08;;;;;;;3.05;0.90;;;21.80;46.20;;;;;;5091993;28;20035;-65
2023/06/03 11:04:36;;;;;;;5.20;1.05;;;21.70;45.90;;;;;;5091206;28;20063;-65
2023/06/03 11:07:03;;;;;;;2.95;0.88;;;21.70;46.20;;;;;;5090117;28;20477;-66
2023/06/03 11:09:39;;;;;;;7.82;0.90;;;21.60;47.20;;;;;;5091554;28;20036;-66
2023/06/03 11:12:14;;;;;;;2.95;0.65;;;21.50;47.60;;;;;;5090795;28;20117;-66
2023/06/03 11:14:48;;;;;;;2.97;0.80;;;21.50;47.80;;;;;;5091391;28;20503;-66
2023/06/03 11:17:15;;;;;;;2.65;1.13;;;21.50;47.50;;;;;;5091730;28;20071;-65
2023/06/03 11:19:55;;;;;;;1.38;1.05;;;21.60;47.60;;;;;;5091576;28;20482;-66
2023/06/03 11:22:27;;;;;;;1.85;0.80;;;21.70;47.60;;;;;;5091820;28;20098;-65
2023/06/03 11:24:53;;;;;;;1.73;0.80;;;21.80;47.40;;;;;;5091636;28;20044;-65
2023/06/03 11:27:21;;;;;;;3.17;0.90;;;21.80;46.30;;;;;;5091520;28;20481;-65
2023/06/03 11:29:47;;;;;;;1.55;1.00;;;21.90;46.60;;;;;;5090478;28;20094;-65
2023/06/03 11:32:22;;;;;;;2.83;0.75;;;22.00;46.60;;;;;;5091082;28;20489;-65
2023/06/03 11:35:09;;;;;;;3.45;0.88;;;21.80;46.20;;;;;;5091184;28;20040;-65
2023/06/03 11:37:40;;;;;;;2.10;0.88;;;21.60;46.10;;;;;;5083891;28;20105;-65
2023/06/03 11:40:07;;;;;;;1.58;0.80;;;21.40;47.90;;;;;;5091889;28;20485;-65
2023/06/03 11:42:48;;;;;;;0.60;0.60;;;21.30;48.50;;;;;;5095186;28;20040;-65
2023/06/03 11:45:16;;;;;;;;;;;21.20;47.50;;;;;;5094335;28;20048;-65
2023/06/03 11:47:49;;;;;;;2.40;0.80;;;21.30;47.40;;;;;;5095289;28;20297;-65
2023/06/03 11:50:15;;;;;;;3.25;0.98;;;21.50;47.40;;;;;;5095368;28;20130;-65
2023/06/03 11:52:41;;;;;;;2.33;0.77;;;21.60;47.50;;;;;;5095212;28;20036;-65
2023/06/03 11:55:07;;;;;;;1.98;0.80;;;21.60;46.70;;;;;;5093320;28;20036;-65
2023/06/03 11:57:37;;;;;;;1.65;0.70;;;21.40;47.00;;;;;;5095145;28;20040;-65
2023/06/03 12:00:10;;;;;;;1.50;0.50;;;21.30;47.50;;;;;;5094064;28;20079;-65
2023/06/03 12:02:37;;;;;;;1.25;0.68;;;21.50;48.40;;;;;;5095143;28;20040;-65
2023/06/03 12:05:06;;;;;;;1.95;0.90;;;21.60;46.50;;;;;;5093288;28;20044;-66
2023/06/03 12:07:32;;;;;;;4.35;1.15;;;21.80;46.40;;;;;;5093430;28;20128;-66
2023/06/03 12:09:57;;;;;;;1.00;0.60;;;21.90;46.20;;;;;;5094829;28;20486;-65
2023/06/03 12:12:23;;;;;;;3.47;0.70;;;22.10;47.00;;;;;;5094996;28;20043;-65
2023/06/03 12:14:49;;;;;;;3.17;0.70;;;22.20;46.90;;;;;;5094462;28;20028;-66
2023/06/03 12:17:17;;;;;;;2.45;0.93;;;22.40;46.50;;;;;;5094815;28;20481;-65
2023/06/03 12:19:48;;;;;;;3.10;0.93;;;22.40;46.10;;;;;;5094757;28;20051;-66
2023/06/03 12:22:21;;;;;;;1.58;0.80;;;22.50;46.00;;;;;;5093319;28;20028;-65
2023/06/03 12:24:46;;;;;;;3.00;0.70;;;22.60;46.20;;;;;;5094424;28;20036;-66
2023/06/03 12:27:14;;;;;;;3.25;1.05;;;22.40;45.60;;;;;;5093438;28;20036;-65
2023/06/03 12:29:48;;;;;;;3.42;0.90;;;22.10;45.50;;;;;;5094459;28;20036;-65
2023/06/03 12:32:14;;;;;;;2.85;1.00;;;22.10;44.50;;;;;;5094450;28;20366;-65
2023/06/03 12:34:40;;;;;;;3.92;0.88;;;22.10;44.90;;;;;;5093926;28;20085;-65
2023/06/03 12:37:06;;;;;;;3.55;0.70;;;22.20;45.10;;;;;;5092966;28;20039;-65
2023/06/03 12:39:50;;;;;;;2.47;0.85;;;22.20;45.30;;;;;;5093719;28;20428;-65
2023/06/03 12:42:18;;;;;;;4.40;0.88;;;22.30;45.20;;;;;;5093341;28;20081;-65
2023/06/03 12:44:50;;;;;;;2.33;0.80;;;22.40;44.40;;;;;;5094363;28;20068;-65
2023/06/03 12:47:17;;;;;;;2.28;0.80;;;22.40;43.90;;;;;;5092094;28;20036;-65
2023/06/03 12:49:44;;;;;;;0.80;0.60;;;22.50;43.60;;;;;;5093919;28;20036;-65
2023/06/03 12:52:15;;;;;;;2.13;0.73;;;22.50;43.90;;;;;;5093607;28;20044;-64
2023/06/03 12:54:50;;;;;;;2.63;0.98;;;22.60;44.50;;;;;;5093559;28;20090;-64